sensor_id;sensor_type;location;lat;lon;timestamp;P1;durP1;ratioP1;P2;durP2;ratioP2
19291;SDS011;9779;51.756;7.450;2023-04-24T00:00:08;2.83;;;0.60;;
19291;SDS011;9779;51.756;7.450;2023-04-24T00:02:35;0.57;;;0.57;;
19291;SDS011;9779;51.756;7.450;2023-04-24T00:05:04;0.60;;;0.60;;
19291;SDS011;9779;51.756;7.450;2023-04-24T00:07:30;0.70;;;0.50;;
19291;SDS011;9779;51.756;7.450;2023-04-24T00:09:56;0.70;;;0.70;;
19291;SDS011;9779;51.756;7.450;2023-04-24T00:12:22;0.50;;;0.50;;
19291;SDS011;9779;51.756;7.450;2023-04-24T00:14:48;1.40;;;0.70;;
19291;SDS011;9779;51.756;7.450;2023-04-24T00:17:13;0.83;;;0.50;;
19291;SDS011;9779;51.756;7.450;2023-04-24T00:19:39;2.73;;;0.70;;
19291;SDS011;9779;51.756;7.450;2023-04-24T00:22:04;0.70;;;0.70;;
19291;SDS011;9779;51.756;7.450;2023-04-24T00:24:30;0.50;;;0.50;;
19291;SDS011;9779;51.756;7.450;2023-04-24T00:26:56;0.50;;;0.50;;
19291;SDS011;9779;51.756;7.450;2023-04-24T00:29:21;0.73;;;0.60;;
19291;SDS011;9779;51.756;7.450;2023-04-24T00:31:47;0.70;;;0.63;;
19291;SDS011;9779;51.756;7.450;2023-04-24T00:34:13;0.97;;;0.93;;
19291;SDS011;9779;51.756;7.450;2023-04-24T00:36:38;0.83;;;0.50;;
19291;SDS011;9779;51.756;7.450;2023-04-24T00:39:04;2.00;;;0.63;;
19291;SDS011;9779;51.756;7.450;2023-04-24T00:41:30;0.50;;;0.50;;
19291;SDS011;9779;51.756;7.450;2023-04-24T00:43:55;1.00;;;0.70;;
19291;SDS011;9779;51.756;7.450;2023-04-24T00:46:21;1.20;;;0.70;;
19291;SDS011;9779;51.756;7.450;2023-04-24T00:48:47;1.17;;;0.70;;
19291;SDS011;9779;51.756;7.450;2023-04-24T00:51:12;0.73;;;0.73;;
19291;SDS011;9779;51.756;7.450;2023-04-24T00:53:38;2.30;;;0.80;;
19291;SDS011;9779;51.756;7.450;2023-04-24T00:56:04;1.07;;;0.50;;
19291;SDS011;9779;51.756;7.450;2023-04-24T00:58:31;1.50;;;0.67;;
19291;SDS011;9779;51.756;7.450;2023-04-24T01:00:57;0.50;;;0.50;;
19291;SDS011;9779;51.756;7.450;2023-04-24T01:03:28;0.60;;;0.60;;
19291;SDS011;9779;51.756;7.450;2023-04-24T01:05:56;0.70;;;0.70;;
19291;SDS011;9779;51.756;7.450;2023-04-24T01:08:26;0.87;;;0.87;;
19291;SDS011;9779;51.756;7.450;2023-04-24T01:10:53;0.90;;;0.70;;
19291;SDS011;9779;51.756;7.450;2023-04-24T01:13:19;0.60;;;0.60;;
19291;SDS011;9779;51.756;7.450;2023-04-24T01:15:45;3.07;;;0.70;;
19291;SDS011;9779;51.756;7.450;2023-04-24T01:18:12;1.27;;;0.73;;
19291;SDS011;9779;51.756;7.450;2023-04-24T01:20:41;1.03;;;1.00;;
19291;SDS011;9779;51.756;7.450;2023-04-24T01:23:09;1.63;;;0.60;;
19291;SDS011;9779;51.756;7.450;2023-04-24T01:25:35;0.50;;;0.50;;
19291;SDS011;9779;51.756;7.450;2023-04-24T01:28:01;0.83;;;0.83;;
19291;SDS011;9779;51.756;7.450;2023-04-24T01:30:27;1.20;;;0.80;;
19291;SDS011;9779;51.756;7.450;2023-04-24T01:32:53;0.70;;;0.70;;
19291;SDS011;9779;51.756;7.450;2023-04-24T01:35:20;0.80;;;0.80;;
19291;SDS011;9779;51.756;7.450;2023-04-24T01:37:45;0.70;;;0.70;;
19291;SDS011;9779;51.756;7.450;2023-04-24T01:40:11;1.70;;;0.60;;
19291;SDS011;9779;51.756;7.450;2023-04-24T01:42:37;0.90;;;0.83;;
19291;SDS011;9779;51.756;7.450;2023-04-24T01:45:03;0.70;;;0.70;;
19291;SDS011;9779;51.756;7.450;2023-04-24T01:47:30;0.90;;;0.80;;
19291;SDS011;9779;51.756;7.450;2023-04-24T01:49:56;1.03;;;0.97;;
19291;SDS011;9779;51.756;7.450;2023-04-24T01:52:22;1.10;;;1.10;;
19291;SDS011;9779;51.756;7.450;2023-04-24T01:54:48;1.67;;;1.30;;
19291;SDS011;9779;51.756;7.450;2023-04-24T01:57:14;1.40;;;0.80;;
19291;SDS011;9779;51.756;7.450;2023-04-24T01:59:41;1.37;;;1.37;;
19291;SDS011;9779;51.756;7.450;2023-04-24T02:02:07;1.40;;;1.37;;
19291;SDS011;9779;51.756;7.450;2023-04-24T02:04:33;1.10;;;1.00;;
19291;SDS011;9779;51.756;7.450;2023-04-24T02:06:58;1.80;;;1.30;;
19291;SDS011;9779;51.756;7.450;2023-04-24T02:09:24;1.57;;;1.20;;
19291;SDS011;9779;51.756;7.450;2023-04-24T02:11:50;3.43;;;1.03;;
19291;SDS011;9779;51.756;7.450;2023-04-24T02:14:15;1.30;;;1.23;;
19291;SDS011;9779;51.756;7.450;2023-04-24T02:16:41;1.30;;;1.17;;
19291;SDS011;9779;51.756;7.450;2023-04-24T02:19:07;2.13;;;1.77;;
19291;SDS011;9779;51.756;7.450;2023-04-24T02:21:33;1.50;;;1.40;;
19291;SDS011;9779;51.756;7.450;2023-04-24T02:23:58;2.33;;;2.07;;
19291;SDS011;9779;51.756;7.450;2023-04-24T02:26:24;2.37;;;2.17;;
19291;SDS011;9779;51.756;7.450;2023-04-24T02:28:50;3.80;;;3.00;;
19291;SDS011;9779;51.756;7.450;2023-04-24T02:31:15;5.30;;;3.33;;
19291;SDS011;9779;51.756;7.450;2023-04-24T02:33:41;3.40;;;3.10;;
19291;SDS011;9779;51.756;7.450;2023-04-24T02:36:06;3.60;;;3.37;;
19291;SDS011;9779;51.756;7.450;2023-04-24T02:38:32;7.73;;;3.83;;
19291;SDS011;9779;51.756;7.450;2023-04-24T02:40:57;2.80;;;2.60;;
19291;SDS011;9779;51.756;7.450;2023-04-24T02:43:23;2.77;;;2.67;;
19291;SDS011;9779;51.756;7.450;2023-04-24T02:45:49;3.40;;;2.70;;
19291;SDS011;9779;51.756;7.450;2023-04-24T02:48:14;2.10;;;2.00;;
19291;SDS011;9779;51.756;7.450;2023-04-24T02:50:40;3.20;;;2.50;;
19291;SDS011;9779;51.756;7.450;2023-04-24T02:53:06;2.80;;;2.70;;
19291;SDS011;9779;51.756;7.450;2023-04-24T02:55:31;2.63;;;2.50;;
19291;SDS011;9779;51.756;7.450;2023-04-24T02:57:57;3.03;;;2.23;;
19291;SDS011;9779;51.756;7.450;2023-04-24T03:00:22;2.53;;;2.33;;
19291;SDS011;9779;51.756;7.450;2023-04-24T03:02:48;2.47;;;2.27;;
19291;SDS011;9779;51.756;7.450;2023-04-24T03:05:14;2.53;;;2.33;;
19291;SDS011;9779;51.756;7.450;2023-04-24T03:07:40;2.97;;;2.77;;
19291;SDS011;9779;51.756;7.450;2023-04-24T03:10:06;7.30;;;3.03;;
19291;SDS011;9779;51.756;7.450;2023-04-24T03:12:32;4.47;;;3.57;;
19291;SDS011;9779;51.756;7.450;2023-04-24T03:14:58;3.70;;;3.40;;
19291;SDS011;9779;51.756;7.450;2023-04-24T03:17:23;4.03;;;3.63;;
19291;SDS011;9779;51.756;7.450;2023-04-24T03:19:49;4.27;;;3.83;;
19291;SDS011;9779;51.756;7.450;2023-04-24T03:22:14;4.33;;;4.03;;
19291;SDS011;9779;51.756;7.450;2023-04-24T03:24:40;4.40;;;4.00;;
19291;SDS011;9779;51.756;7.450;2023-04-24T03:27:06;4.13;;;3.77;;
19291;SDS011;9779;51.756;7.450;2023-04-24T03:29:31;6.60;;;3.77;;
19291;SDS011;9779;51.756;7.450;2023-04-24T03:31:57;5.60;;;4.80;;
19291;SDS011;9779;51.756;7.450;2023-04-24T03:34:22;6.80;;;5.00;;
19291;SDS011;9779;51.756;7.450;2023-04-24T03:36:48;5.13;;;4.73;;
19291;SDS011;9779;51.756;7.450;2023-04-24T03:39:13;6.00;;;5.30;;
19291;SDS011;9779;51.756;7.450;2023-04-24T03:41:39;6.87;;;5.90;;
19291;SDS011;9779;51.756;7.450;2023-04-24T03:44:05;6.67;;;5.67;;
19291;SDS011;9779;51.756;7.450;2023-04-24T03:46:30;7.00;;;6.37;;
19291;SDS011;9779;51.756;7.450;2023-04-24T03:48:56;6.83;;;6.33;;
19291;SDS011;9779;51.756;7.450;2023-04-24T03:51:21;6.93;;;6.33;;
19291;SDS011;9779;51.756;7.450;2023-04-24T03:53:47;8.63;;;6.57;;
19291;SDS011;9779;51.756;7.450;2023-04-24T03:56:13;7.33;;;6.73;;
19291;SDS011;9779;51.756;7.450;2023-04-24T03:58:39;8.17;;;6.93;;
19291;SDS011;9779;51.756;7.450;2023-04-24T04:01:05;7.53;;;6.87;;
19291;SDS011;9779;51.756;7.450;2023-04-24T04:03:31;7.93;;;7.20;;
19291;SDS011;9779;51.756;7.450;2023-04-24T04:05:56;7.60;;;7.00;;
19291;SDS011;9779;51.756;7.450;2023-04-24T04:08:22;9.83;;;7.33;;
19291;SDS011;9779;51.756;7.450;2023-04-24T04:10:47;10.97;;;7.17;;
19291;SDS011;9779;51.756;7.450;2023-04-24T04:13:13;10.07;;;7.70;;
19291;SDS011;9779;51.756;7.450;2023-04-24T04:15:39;10.07;;;7.87;;
19291;SDS011;9779;51.756;7.450;2023-04-24T04:18:05;7.97;;;7.27;;
19291;SDS011;9779;51.756;7.450;2023-04-24T04:20:30;9.50;;;7.20;;
19291;SDS011;9779;51.756;7.450;2023-04-24T04:22:56;8.40;;;7.60;;
19291;SDS011;9779;51.756;7.450;2023-04-24T04:25:21;9.07;;;8.17;;
19291;SDS011;9779;51.756;7.450;2023-04-24T04:27:48;9.90;;;8.90;;
19291;SDS011;9779;51.756;7.450;2023-04-24T04:30:14;8.20;;;7.40;;
19291;SDS011;9779;51.756;7.450;2023-04-24T04:32:39;17.53;;;8.50;;
19291;SDS011;9779;51.756;7.450;2023-04-24T04:35:05;8.80;;;8.00;;
19291;SDS011;9779;51.756;7.450;2023-04-24T04:37:34;8.80;;;8.03;;
19291;SDS011;9779;51.756;7.450;2023-04-24T04:40:00;8.80;;;7.90;;
19291;SDS011;9779;51.756;7.450;2023-04-24T04:42:31;10.60;;;8.70;;
19291;SDS011;9779;51.756;7.450;2023-04-24T04:44:57;9.93;;;8.13;;
19291;SDS011;9779;51.756;7.450;2023-04-24T04:47:23;10.27;;;7.20;;
19291;SDS011;9779;51.756;7.450;2023-04-24T04:49:49;15.03;;;8.50;;
19291;SDS011;9779;51.756;7.450;2023-04-24T04:52:16;9.00;;;7.87;;
19291;SDS011;9779;51.756;7.450;2023-04-24T04:54:42;11.60;;;8.27;;
19291;SDS011;9779;51.756;7.450;2023-04-24T04:57:08;9.27;;;8.47;;
19291;SDS011;9779;51.756;7.450;2023-04-24T04:59:34;10.73;;;8.70;;
19291;SDS011;9779;51.756;7.450;2023-04-24T05:01:59;9.50;;;8.60;;
19291;SDS011;9779;51.756;7.450;2023-04-24T05:04:25;10.90;;;7.63;;
19291;SDS011;9779;51.756;7.450;2023-04-24T05:06:51;8.70;;;7.80;;
19291;SDS011;9779;51.756;7.450;2023-04-24T05:09:17;8.93;;;7.37;;
19291;SDS011;9779;51.756;7.450;2023-04-24T05:11:43;7.90;;;7.13;;
19291;SDS011;9779;51.756;7.450;2023-04-24T05:14:08;9.07;;;7.83;;
19291;SDS011;9779;51.756;7.450;2023-04-24T05:16:34;8.27;;;7.50;;
19291;SDS011;9779;51.756;7.450;2023-04-24T05:18:59;9.47;;;7.73;;
19291;SDS011;9779;51.756;7.450;2023-04-24T05:21:25;9.53;;;7.77;;
19291;SDS011;9779;51.756;7.450;2023-04-24T05:23:51;11.40;;;7.93;;
19291;SDS011;9779;51.756;7.450;2023-04-24T05:26:17;8.67;;;7.97;;
19291;SDS011;9779;51.756;7.450;2023-04-24T05:28:42;12.73;;;8.07;;
19291;SDS011;9779;51.756;7.450;2023-04-24T05:31:08;11.33;;;8.03;;
19291;SDS011;9779;51.756;7.450;2023-04-24T05:33:34;7.63;;;6.90;;
19291;SDS011;9779;51.756;7.450;2023-04-24T05:35:59;8.60;;;7.80;;
19291;SDS011;9779;51.756;7.450;2023-04-24T05:38:25;12.97;;;7.10;;
19291;SDS011;9779;51.756;7.450;2023-04-24T05:40:50;9.47;;;7.10;;
19291;SDS011;9779;51.756;7.450;2023-04-24T05:43:16;7.57;;;6.90;;
19291;SDS011;9779;51.756;7.450;2023-04-24T05:45:41;9.57;;;7.10;;
19291;SDS011;9779;51.756;7.450;2023-04-24T05:48:07;7.60;;;6.90;;
19291;SDS011;9779;51.756;7.450;2023-04-24T05:50:32;7.20;;;6.53;;
19291;SDS011;9779;51.756;7.450;2023-04-24T05:52:58;7.47;;;6.97;;
19291;SDS011;9779;51.756;7.450;2023-04-24T05:55:24;7.10;;;6.40;;
19291;SDS011;9779;51.756;7.450;2023-04-24T05:57:50;7.83;;;6.87;;
19291;SDS011;9779;51.756;7.450;2023-04-24T06:00:16;7.33;;;6.73;;
19291;SDS011;9779;51.756;7.450;2023-04-24T06:02:44;8.53;;;6.63;;
19291;SDS011;9779;51.756;7.450;2023-04-24T06:05:10;7.93;;;6.20;;
19291;SDS011;9779;51.756;7.450;2023-04-24T06:07:35;7.57;;;6.73;;
19291;SDS011;9779;51.756;7.450;2023-04-24T06:10:01;8.53;;;7.57;;
19291;SDS011;9779;51.756;7.450;2023-04-24T06:12:27;13.73;;;6.60;;
19291;SDS011;9779;51.756;7.450;2023-04-24T06:14:52;6.77;;;6.27;;
19291;SDS011;9779;51.756;7.450;2023-04-24T06:17:20;7.27;;;5.83;;
19291;SDS011;9779;51.756;7.450;2023-04-24T06:19:46;5.73;;;5.33;;
19291;SDS011;9779;51.756;7.450;2023-04-24T06:22:12;5.63;;;5.13;;
19291;SDS011;9779;51.756;7.450;2023-04-24T06:24:37;8.27;;;5.70;;
19291;SDS011;9779;51.756;7.450;2023-04-24T06:27:04;5.47;;;4.97;;
19291;SDS011;9779;51.756;7.450;2023-04-24T06:29:29;8.23;;;4.53;;
19291;SDS011;9779;51.756;7.450;2023-04-24T06:31:55;4.63;;;4.33;;
19291;SDS011;9779;51.756;7.450;2023-04-24T06:34:20;4.53;;;4.23;;
19291;SDS011;9779;51.756;7.450;2023-04-24T06:36:46;5.37;;;4.97;;
19291;SDS011;9779;51.756;7.450;2023-04-24T06:39:12;5.20;;;4.80;;
19291;SDS011;9779;51.756;7.450;2023-04-24T06:41:37;6.00;;;5.00;;
19291;SDS011;9779;51.756;7.450;2023-04-24T06:44:04;5.60;;;5.00;;
19291;SDS011;9779;51.756;7.450;2023-04-24T06:46:30;5.23;;;4.83;;
19291;SDS011;9779;51.756;7.450;2023-04-24T06:48:56;5.43;;;5.03;;
19291;SDS011;9779;51.756;7.450;2023-04-24T06:51:22;9.13;;;5.53;;
19291;SDS011;9779;51.756;7.450;2023-04-24T06:53:48;7.37;;;6.40;;
19291;SDS011;9779;51.756;7.450;2023-04-24T06:56:14;5.57;;;5.07;;
19291;SDS011;9779;51.756;7.450;2023-04-24T06:58:40;5.40;;;5.03;;
19291;SDS011;9779;51.756;7.450;2023-04-24T07:01:06;5.60;;;5.20;;
19291;SDS011;9779;51.756;7.450;2023-04-24T07:03:32;5.80;;;4.80;;
19291;SDS011;9779;51.756;7.450;2023-04-24T07:05:57;5.20;;;4.90;;
19291;SDS011;9779;51.756;7.450;2023-04-24T07:08:23;8.80;;;4.93;;
19291;SDS011;9779;51.756;7.450;2023-04-24T07:10:49;4.53;;;4.23;;
19291;SDS011;9779;51.756;7.450;2023-04-24T07:13:15;4.70;;;4.40;;
19291;SDS011;9779;51.756;7.450;2023-04-24T07:15:42;6.80;;;4.13;;
19291;SDS011;9779;51.756;7.450;2023-04-24T07:18:07;5.77;;;4.60;;
19291;SDS011;9779;51.756;7.450;2023-04-24T07:20:33;4.83;;;4.20;;
19291;SDS011;9779;51.756;7.450;2023-04-24T07:22:59;4.37;;;3.97;;
19291;SDS011;9779;51.756;7.450;2023-04-24T07:25:24;6.97;;;3.80;;
19291;SDS011;9779;51.756;7.450;2023-04-24T07:27:50;4.43;;;4.13;;
19291;SDS011;9779;51.756;7.450;2023-04-24T07:30:15;4.47;;;3.80;;
19291;SDS011;9779;51.756;7.450;2023-04-24T07:32:41;3.90;;;3.60;;
19291;SDS011;9779;51.756;7.450;2023-04-24T07:35:06;5.93;;;3.50;;
19291;SDS011;9779;51.756;7.450;2023-04-24T07:37:34;3.60;;;3.30;;
19291;SDS011;9779;51.756;7.450;2023-04-24T07:40:00;4.17;;;3.77;;
19291;SDS011;9779;51.756;7.450;2023-04-24T07:42:25;3.80;;;3.50;;
19291;SDS011;9779;51.756;7.450;2023-04-24T07:44:51;4.17;;;3.87;;
19291;SDS011;9779;51.756;7.450;2023-04-24T07:47:16;9.07;;;3.30;;
19291;SDS011;9779;51.756;7.450;2023-04-24T07:49:42;5.23;;;3.77;;
19291;SDS011;9779;51.756;7.450;2023-04-24T07:52:08;3.33;;;3.10;;
19291;SDS011;9779;51.756;7.450;2023-04-24T07:54:33;2.83;;;2.63;;
19291;SDS011;9779;51.756;7.450;2023-04-24T07:56:59;2.83;;;2.63;;
19291;SDS011;9779;51.756;7.450;2023-04-24T07:59:25;3.13;;;2.47;;
19291;SDS011;9779;51.756;7.450;2023-04-24T08:01:51;3.10;;;2.90;;
19291;SDS011;9779;51.756;7.450;2023-04-24T08:04:16;2.63;;;2.43;;
19291;SDS011;9779;51.756;7.450;2023-04-24T08:06:43;2.97;;;2.77;;
19291;SDS011;9779;51.756;7.450;2023-04-24T08:09:08;2.53;;;2.33;;
19291;SDS011;9779;51.756;7.450;2023-04-24T08:11:34;3.00;;;2.10;;
19291;SDS011;9779;51.756;7.450;2023-04-24T08:14:00;4.27;;;2.07;;
19291;SDS011;9779;51.756;7.450;2023-04-24T08:16:25;2.70;;;2.20;;
19291;SDS011;9779;51.756;7.450;2023-04-24T08:18:52;2.90;;;1.97;;
19291;SDS011;9779;51.756;7.450;2023-04-24T08:21:18;2.63;;;1.80;;
19291;SDS011;9779;51.756;7.450;2023-04-24T08:23:45;1.90;;;1.80;;
19291;SDS011;9779;51.756;7.450;2023-04-24T08:26:11;31.53;;;1.67;;
19291;SDS011;9779;51.756;7.450;2023-04-24T08:28:37;1.70;;;1.60;;
19291;SDS011;9779;51.756;7.450;2023-04-24T08:31:03;1.57;;;1.47;;
19291;SDS011;9779;51.756;7.450;2023-04-24T08:33:29;1.80;;;1.70;;
19291;SDS011;9779;51.756;7.450;2023-04-24T08:36:03;1.20;;;1.17;;
19291;SDS011;9779;51.756;7.450;2023-04-24T08:38:30;1.20;;;1.20;;
19291;SDS011;9779;51.756;7.450;2023-04-24T08:40:59;1.80;;;1.20;;
19291;SDS011;9779;51.756;7.450;2023-04-24T08:43:26;1.10;;;1.10;;
19291;SDS011;9779;51.756;7.450;2023-04-24T08:45:52;0.90;;;0.90;;
19291;SDS011;9779;51.756;7.450;2023-04-24T08:48:20;2.07;;;0.93;;
19291;SDS011;9779;51.756;7.450;2023-04-24T08:50:48;0.90;;;0.90;;
19291;SDS011;9779;51.756;7.450;2023-04-24T08:53:17;0.90;;;0.90;;
19291;SDS011;9779;51.756;7.450;2023-04-24T08:55:43;1.20;;;1.10;;
19291;SDS011;9779;51.756;7.450;2023-04-24T08:58:12;1.20;;;0.90;;
19291;SDS011;9779;51.756;7.450;2023-04-24T09:00:39;1.17;;;1.00;;
19291;SDS011;9779;51.756;7.450;2023-04-24T09:03:09;1.00;;;1.00;;
19291;SDS011;9779;51.756;7.450;2023-04-24T09:05:35;1.00;;;1.00;;
19291;SDS011;9779;51.756;7.450;2023-04-24T09:08:01;0.87;;;0.87;;
19291;SDS011;9779;51.756;7.450;2023-04-24T09:10:27;1.30;;;0.97;;
19291;SDS011;9779;51.756;7.450;2023-04-24T09:12:55;1.00;;;1.00;;
19291;SDS011;9779;51.756;7.450;2023-04-24T09:15:23;1.13;;;1.03;;
19291;SDS011;9779;51.756;7.450;2023-04-24T09:17:49;1.20;;;1.10;;
19291;SDS011;9779;51.756;7.450;2023-04-24T09:20:15;1.10;;;1.10;;
19291;SDS011;9779;51.756;7.450;2023-04-24T09:22:41;1.13;;;1.13;;
19291;SDS011;9779;51.756;7.450;2023-04-24T09:25:08;1.30;;;1.20;;
19291;SDS011;9779;51.756;7.450;2023-04-24T09:27:36;0.90;;;0.90;;
19291;SDS011;9779;51.756;7.450;2023-04-24T09:30:08;1.33;;;1.23;;
19291;SDS011;9779;51.756;7.450;2023-04-24T09:32:34;1.27;;;1.17;;
19291;SDS011;9779;51.756;7.450;2023-04-24T09:35:13;1.37;;;1.27;;
19291;SDS011;9779;51.756;7.450;2023-04-24T09:37:41;4.00;;;1.53;;
19291;SDS011;9779;51.756;7.450;2023-04-24T09:40:11;1.60;;;1.50;;
19291;SDS011;9779;51.756;7.450;2023-04-24T09:42:39;1.30;;;1.20;;
19291;SDS011;9779;51.756;7.450;2023-04-24T09:45:08;1.63;;;1.53;;
19291;SDS011;9779;51.756;7.450;2023-04-24T09:47:38;1.67;;;1.40;;
19291;SDS011;9779;51.756;7.450;2023-04-24T09:50:14;2.70;;;1.23;;
19291;SDS011;9779;51.756;7.450;2023-04-24T09:52:42;1.20;;;1.20;;
19291;SDS011;9779;51.756;7.450;2023-04-24T09:55:20;1.37;;;1.27;;
19291;SDS011;9779;51.756;7.450;2023-04-24T09:57:53;1.40;;;1.33;;
19291;SDS011;9779;51.756;7.450;2023-04-24T10:00:29;2.00;;;1.67;;
19291;SDS011;9779;51.756;7.450;2023-04-24T10:02:56;1.37;;;1.27;;
19291;SDS011;9779;51.756;7.450;2023-04-24T10:05:23;1.27;;;1.20;;
19291;SDS011;9779;51.756;7.450;2023-04-24T10:07:50;7.87;;;1.50;;
19291;SDS011;9779;51.756;7.450;2023-04-24T10:10:16;1.17;;;1.13;;
19291;SDS011;9779;51.756;7.450;2023-04-24T10:12:42;1.30;;;1.20;;
19291;SDS011;9779;51.756;7.450;2023-04-24T10:15:09;1.40;;;1.30;;
19291;SDS011;9779;51.756;7.450;2023-04-24T10:17:37;1.30;;;1.20;;
19291;SDS011;9779;51.756;7.450;2023-04-24T10:20:04;1.50;;;1.40;;
19291;SDS011;9779;51.756;7.450;2023-04-24T10:22:32;1.90;;;1.70;;
19291;SDS011;9779;51.756;7.450;2023-04-24T10:24:58;1.37;;;1.27;;
19291;SDS011;9779;51.756;7.450;2023-04-24T10:27:25;2.60;;;1.70;;
19291;SDS011;9779;51.756;7.450;2023-04-24T10:29:52;2.03;;;1.93;;
19291;SDS011;9779;51.756;7.450;2023-04-24T10:32:18;2.27;;;2.07;;
19291;SDS011;9779;51.756;7.450;2023-04-24T10:34:44;2.20;;;2.00;;
19291;SDS011;9779;51.756;7.450;2023-04-24T10:37:10;3.93;;;2.07;;
19291;SDS011;9779;51.756;7.450;2023-04-24T10:39:35;2.13;;;2.03;;
19291;SDS011;9779;51.756;7.450;2023-04-24T10:42:02;3.83;;;2.43;;
19291;SDS011;9779;51.756;7.450;2023-04-24T10:44:40;1.90;;;1.80;;
19291;SDS011;9779;51.756;7.450;2023-04-24T10:47:06;2.03;;;1.90;;
19291;SDS011;9779;51.756;7.450;2023-04-24T10:49:39;2.40;;;2.20;;
19291;SDS011;9779;51.756;7.450;2023-04-24T10:52:05;3.97;;;2.07;;
19291;SDS011;9779;51.756;7.450;2023-04-24T10:54:34;2.30;;;2.03;;
19291;SDS011;9779;51.756;7.450;2023-04-24T11:00:33;2.73;;;2.03;;
19291;SDS011;9779;51.756;7.450;2023-04-24T11:02:41;2.23;;;1.90;;
19291;SDS011;9779;51.756;7.450;2023-04-24T11:05:17;2.87;;;2.60;;
19291;SDS011;9779;51.756;7.450;2023-04-24T11:10:44;4.00;;;2.50;;
19291;SDS011;9779;51.756;7.450;2023-04-24T11:13:14;2.53;;;2.33;;
19291;SDS011;9779;51.756;7.450;2023-04-24T11:15:46;2.77;;;2.40;;
19291;SDS011;9779;51.756;7.450;2023-04-24T11:18:51;3.33;;;2.20;;
19291;SDS011;9779;51.756;7.450;2023-04-24T11:21:31;2.63;;;2.00;;
19291;SDS011;9779;51.756;7.450;2023-04-24T11:27:13;4.63;;;2.73;;
19291;SDS011;9779;51.756;7.450;2023-04-24T11:29:48;4.77;;;2.80;;
19291;SDS011;9779;51.756;7.450;2023-04-24T11:35:14;4.90;;;2.27;;
19291;SDS011;9779;51.756;7.450;2023-04-24T11:37:50;2.27;;;1.90;;
19291;SDS011;9779;51.756;7.450;2023-04-24T11:40:18;10.23;;;2.73;;
19291;SDS011;9779;51.756;7.450;2023-04-24T11:42:46;5.50;;;3.50;;
19291;SDS011;9779;51.756;7.450;2023-04-24T11:47:40;11.10;;;2.90;;
19291;SDS011;9779;51.756;7.450;2023-04-24T11:50:10;3.83;;;2.67;;
19291;SDS011;9779;51.756;7.450;2023-04-24T11:52:41;6.43;;;2.67;;
19291;SDS011;9779;51.756;7.450;2023-04-24T11:57:39;5.87;;;2.83;;
19291;SDS011;9779;51.756;7.450;2023-04-24T12:00:14;4.43;;;2.80;;
19291;SDS011;9779;51.756;7.450;2023-04-24T12:03:18;5.30;;;2.97;;
19291;SDS011;9779;51.756;7.450;2023-04-24T12:05:44;4.10;;;3.20;;
19291;SDS011;9779;51.756;7.450;2023-04-24T12:08:10;4.53;;;4.07;;
19291;SDS011;9779;51.756;7.450;2023-04-24T12:10:35;6.80;;;3.43;;
19291;SDS011;9779;51.756;7.450;2023-04-24T12:13:01;8.57;;;3.10;;
19291;SDS011;9779;51.756;7.450;2023-04-24T12:15:27;9.77;;;3.83;;
19291;SDS011;9779;51.756;7.450;2023-04-24T12:17:54;9.03;;;3.63;;
19291;SDS011;9779;51.756;7.450;2023-04-24T12:20:28;7.53;;;3.20;;
19291;SDS011;9779;51.756;7.450;2023-04-24T12:22:56;8.70;;;3.10;;
19291;SDS011;9779;51.756;7.450;2023-04-24T12:25:23;8.63;;;2.80;;
19291;SDS011;9779;51.756;7.450;2023-04-24T12:30:28;9.77;;;3.30;;
19291;SDS011;9779;51.756;7.450;2023-04-24T12:32:56;11.20;;;3.57;;
19291;SDS011;9779;51.756;7.450;2023-04-24T12:35:24;12.37;;;3.50;;
19291;SDS011;9779;51.756;7.450;2023-04-24T12:37:51;11.30;;;3.73;;
19291;SDS011;9779;51.756;7.450;2023-04-24T12:40:18;6.33;;;2.80;;
19291;SDS011;9779;51.756;7.450;2023-04-24T12:42:45;6.70;;;3.20;;
19291;SDS011;9779;51.756;7.450;2023-04-24T12:45:12;9.47;;;2.73;;
19291;SDS011;9779;51.756;7.450;2023-04-24T12:47:39;10.23;;;2.73;;
19291;SDS011;9779;51.756;7.450;2023-04-24T12:50:06;6.10;;;2.80;;
19291;SDS011;9779;51.756;7.450;2023-04-24T12:52:36;3.77;;;2.03;;
19291;SDS011;9779;51.756;7.450;2023-04-24T12:55:02;5.47;;;2.47;;
19291;SDS011;9779;51.756;7.450;2023-04-24T12:57:30;5.37;;;1.93;;
19291;SDS011;9779;51.756;7.450;2023-04-24T12:59:56;5.17;;;2.10;;
19291;SDS011;9779;51.756;7.450;2023-04-24T13:02:23;8.43;;;2.20;;
19291;SDS011;9779;51.756;7.450;2023-04-24T13:04:50;3.97;;;1.90;;
19291;SDS011;9779;51.756;7.450;2023-04-24T13:07:16;10.40;;;2.77;;
19291;SDS011;9779;51.756;7.450;2023-04-24T13:09:42;2.70;;;1.80;;
19291;SDS011;9779;51.756;7.450;2023-04-24T13:12:09;2.33;;;1.87;;
19291;SDS011;9779;51.756;7.450;2023-04-24T13:14:35;6.57;;;2.07;;
19291;SDS011;9779;51.756;7.450;2023-04-24T13:17:01;4.80;;;2.37;;
19291;SDS011;9779;51.756;7.450;2023-04-24T13:19:28;3.27;;;2.10;;
19291;SDS011;9779;51.756;7.450;2023-04-24T13:21:54;3.10;;;2.00;;
19291;SDS011;9779;51.756;7.450;2023-04-24T13:24:21;1.50;;;1.40;;
19291;SDS011;9779;51.756;7.450;2023-04-24T13:26:49;4.70;;;1.53;;
19291;SDS011;9779;51.756;7.450;2023-04-24T13:29:15;4.50;;;1.73;;
19291;SDS011;9779;51.756;7.450;2023-04-24T13:31:41;2.37;;;1.20;;
19291;SDS011;9779;51.756;7.450;2023-04-24T13:34:07;4.80;;;1.10;;
19291;SDS011;9779;51.756;7.450;2023-04-24T13:36:32;2.90;;;1.23;;
19291;SDS011;9779;51.756;7.450;2023-04-24T13:38:58;2.67;;;1.47;;
19291;SDS011;9779;51.756;7.450;2023-04-24T13:41:23;3.27;;;1.40;;
19291;SDS011;9779;51.756;7.450;2023-04-24T13:43:49;3.43;;;1.63;;
19291;SDS011;9779;51.756;7.450;2023-04-24T13:46:15;4.87;;;1.87;;
19291;SDS011;9779;51.756;7.450;2023-04-24T13:48:41;2.83;;;1.33;;
19291;SDS011;9779;51.756;7.450;2023-04-24T13:51:07;3.00;;;1.50;;
19291;SDS011;9779;51.756;7.450;2023-04-24T13:53:32;2.77;;;1.30;;
19291;SDS011;9779;51.756;7.450;2023-04-24T13:56:01;1.90;;;1.27;;
19291;SDS011;9779;51.756;7.450;2023-04-24T13:58:27;1.97;;;1.83;;
19291;SDS011;9779;51.756;7.450;2023-04-24T14:00:52;5.53;;;1.60;;
19291;SDS011;9779;51.756;7.450;2023-04-24T14:03:18;2.10;;;1.70;;
19291;SDS011;9779;51.756;7.450;2023-04-24T14:05:43;3.00;;;1.87;;
19291;SDS011;9779;51.756;7.450;2023-04-24T14:08:09;2.70;;;1.30;;
19291;SDS011;9779;51.756;7.450;2023-04-24T14:10:35;2.43;;;1.20;;
19291;SDS011;9779;51.756;7.450;2023-04-24T14:13:00;1.10;;;1.10;;
19291;SDS011;9779;51.756;7.450;2023-04-24T14:15:26;2.60;;;1.80;;
19291;SDS011;9779;51.756;7.450;2023-04-24T14:17:51;3.20;;;1.80;;
19291;SDS011;9779;51.756;7.450;2023-04-24T14:20:17;4.20;;;1.33;;
19291;SDS011;9779;51.756;7.450;2023-04-24T14:22:42;2.33;;;1.57;;
19291;SDS011;9779;51.756;7.450;2023-04-24T14:25:08;3.77;;;2.63;;
19291;SDS011;9779;51.756;7.450;2023-04-24T14:27:34;6.73;;;2.00;;
19291;SDS011;9779;51.756;7.450;2023-04-24T14:30:00;2.50;;;1.77;;
19291;SDS011;9779;51.756;7.450;2023-04-24T14:32:26;2.10;;;1.90;;
19291;SDS011;9779;51.756;7.450;2023-04-24T14:34:51;3.43;;;2.47;;
19291;SDS011;9779;51.756;7.450;2023-04-24T14:37:17;11.03;;;6.37;;
19291;SDS011;9779;51.756;7.450;2023-04-24T14:39:43;2.90;;;2.60;;
19291;SDS011;9779;51.756;7.450;2023-04-24T14:42:08;2.73;;;2.00;;
19291;SDS011;9779;51.756;7.450;2023-04-24T14:44:34;3.10;;;2.90;;
19291;SDS011;9779;51.756;7.450;2023-04-24T14:46:59;4.57;;;2.13;;
19291;SDS011;9779;51.756;7.450;2023-04-24T14:49:25;6.77;;;4.20;;
19291;SDS011;9779;51.756;7.450;2023-04-24T14:51:51;5.20;;;3.13;;
19291;SDS011;9779;51.756;7.450;2023-04-24T14:54:16;2.30;;;2.17;;
19291;SDS011;9779;51.756;7.450;2023-04-24T14:56:42;2.67;;;1.87;;
19291;SDS011;9779;51.756;7.450;2023-04-24T14:59:09;4.07;;;1.80;;
19291;SDS011;9779;51.756;7.450;2023-04-24T15:01:35;3.90;;;1.50;;
19291;SDS011;9779;51.756;7.450;2023-04-24T15:04:00;6.57;;;2.13;;
19291;SDS011;9779;51.756;7.450;2023-04-24T15:06:26;3.20;;;1.60;;
19291;SDS011;9779;51.756;7.450;2023-04-24T15:08:51;1.90;;;1.23;;
19291;SDS011;9779;51.756;7.450;2023-04-24T15:11:17;3.90;;;1.10;;
19291;SDS011;9779;51.756;7.450;2023-04-24T15:13:43;4.40;;;1.17;;
19291;SDS011;9779;51.756;7.450;2023-04-24T15:16:10;0.90;;;0.90;;